createdAt,value
2018-08-24T00:00:09.040Z,4.40
2018-08-24T00:02:36.364Z,4.10
2018-08-24T00:05:03.689Z,4.80
2018-08-24T00:07:30.980Z,4.83
2018-08-24T00:09:58.232Z,4.97
2018-08-24T00:12:25.580Z,5.23
2018-08-24T00:14:52.850Z,6.50
2018-08-24T00:17:25.913Z,5.17
2018-08-24T00:19:53.290Z,6.33
2018-08-24T00:22:20.556Z,5.80
2018-08-24T00:24:47.759Z,6.10
2018-08-24T00:27:14.996Z,5.43
2018-08-24T00:29:42.299Z,5.40
2018-08-24T00:32:09.567Z,5.00
2018-08-24T00:34:36.833Z,4.97
2018-08-24T00:37:04.077Z,5.30
2018-08-24T00:39:31.420Z,4.77
2018-08-24T00:41:58.726Z,4.70
2018-08-24T00:44:26.102Z,5.00
2018-08-24T00:46:53.475Z,5.23
2018-08-24T00:49:20.784Z,5.73
2018-08-24T00:51:48.122Z,5.83
2018-08-24T00:54:15.480Z,4.73
2018-08-24T00:56:42.848Z,6.13
2018-08-24T00:59:10.143Z,5.50
2018-08-24T01:01:37.655Z,5.70
2018-08-24T01:04:04.984Z,4.93
2018-08-24T01:06:32.373Z,5.27
2018-08-24T01:08:59.704Z,5.33
2018-08-24T01:11:32.657Z,5.37
2018-08-24T01:13:59.974Z,5.73
2018-08-24T01:16:32.923Z,4.60
2018-08-24T01:19:00.230Z,5.50
2018-08-24T01:21:27.446Z,5.00
2018-08-24T01:23:54.678Z,6.00
2018-08-24T01:26:22.984Z,6.70
2018-08-24T01:28:50.964Z,5.10
2018-08-24T01:31:18.642Z,4.90
2018-08-24T01:33:45.952Z,5.53
2018-08-24T01:36:13.273Z,4.83
2018-08-24T01:38:40.620Z,6.03
2018-08-24T01:41:07.896Z,5.43
2018-08-24T01:43:35.227Z,6.40
2018-08-24T01:46:08.034Z,6.43
2018-08-24T01:48:35.396Z,6.83
2018-08-24T01:51:02.727Z,6.80
2018-08-24T01:53:30.123Z,8.20
2018-08-24T01:55:57.558Z,6.63
2018-08-24T01:58:24.880Z,7.40
2018-08-24T02:00:52.176Z,7.00
2018-08-24T02:03:19.508Z,6.77
2018-08-24T02:05:46.817Z,6.50
2018-08-24T02:08:14.134Z,7.70
2018-08-24T02:10:41.422Z,6.03
2018-08-24T02:13:14.408Z,7.20
2018-08-24T02:15:46.616Z,6.57
2018-08-24T02:18:19.657Z,6.57
2018-08-24T02:20:52.610Z,6.80
2018-08-24T02:23:19.996Z,6.53
2018-08-24T02:25:47.307Z,6.83
2018-08-24T02:28:14.710Z,6.90
2018-08-24T02:30:42.049Z,6.20
2018-08-24T02:33:09.437Z,6.80
2018-08-24T02:35:36.797Z,6.70
2018-08-24T02:38:04.266Z,7.80
2018-08-24T02:40:31.622Z,7.13
2018-08-24T02:42:58.980Z,7.30
2018-08-24T02:45:26.459Z,7.17
2018-08-24T02:47:53.778Z,6.50
2018-08-24T02:50:21.073Z,6.47
2018-08-24T02:52:48.345Z,6.80
2018-08-24T02:55:15.615Z,7.60
2018-08-24T02:57:42.936Z,6.10
2018-08-24T03:00:10.371Z,7.03
2018-08-24T03:02:37.798Z,5.93
2018-08-24T03:05:05.177Z,6.60
2018-08-24T03:07:32.439Z,6.80
2018-08-24T03:09:59.797Z,6.93
2018-08-24T03:12:27.047Z,7.43
2018-08-24T03:14:54.303Z,6.53
2018-08-24T03:17:27.156Z,7.53
2018-08-24T03:19:54.525Z,7.60
2018-08-24T03:22:22.041Z,6.90
2018-08-24T03:24:49.285Z,7.97
2018-08-24T03:27:16.586Z,7.60
2018-08-24T03:29:43.879Z,7.50
2018-08-24T03:32:11.154Z,7.20
2018-08-24T03:34:38.428Z,6.57
2018-08-24T03:37:06.271Z,7.00
2018-08-24T03:39:33.584Z,6.87
2018-08-24T03:42:00.956Z,6.63
2018-08-24T03:44:28.204Z,7.60
2018-08-24T03:46:55.616Z,6.67
2018-08-24T03:49:23.059Z,6.53
2018-08-24T03:51:50.332Z,6.20
2018-08-24T03:54:20.650Z,6.53
2018-08-24T03:56:54.583Z,7.40
2018-08-24T03:59:22.292Z,6.17
2018-08-24T04:01:49.622Z,7.00
2018-08-24T04:04:16.902Z,5.20
2018-08-24T04:06:44.166Z,7.03
2018-08-24T04:09:11.952Z,7.30
2018-08-24T04:11:39.276Z,6.83
2018-08-24T04:14:06.580Z,6.60
2018-08-24T04:16:39.501Z,6.87
2018-08-24T04:19:11.323Z,5.90
2018-08-24T04:21:38.632Z,7.10
2018-08-24T04:24:05.919Z,6.37
2018-08-24T04:26:33.199Z,6.43
2018-08-24T04:29:00.505Z,5.70
2018-08-24T04:31:27.725Z,8.17
2018-08-24T04:33:55.059Z,7.70
2018-08-24T04:36:22.376Z,6.37
2018-08-24T04:38:49.636Z,7.07
2018-08-24T04:41:16.868Z,5.90
2018-08-24T04:43:44.107Z,6.43
2018-08-24T04:46:11.411Z,5.83
2018-08-24T04:48:38.795Z,5.77
2018-08-24T04:51:06.047Z,6.93
2018-08-24T04:53:33.354Z,6.63
2018-08-24T04:56:00.719Z,6.03
2018-08-24T04:58:27.982Z,6.60
2018-08-24T05:00:55.190Z,5.90
2018-08-24T05:03:22.504Z,5.63
2018-08-24T05:05:49.851Z,5.53
2018-08-24T05:08:17.051Z,5.30
2018-08-24T05:10:44.368Z,6.20
2018-08-24T05:13:11.655Z,5.47
2018-08-24T05:15:38.999Z,5.80
2018-08-24T05:18:06.382Z,5.87
2018-08-24T05:20:33.660Z,5.00
2018-08-24T05:23:01.080Z,5.63
2018-08-24T05:25:28.339Z,6.00
2018-08-24T05:27:55.638Z,5.67
2018-08-24T05:30:22.844Z,5.60
2018-08-24T05:32:50.076Z,6.10
2018-08-24T05:35:17.323Z,6.40
2018-08-24T05:37:44.576Z,6.00
2018-08-24T05:40:11.821Z,6.77
2018-08-24T05:42:39.137Z,6.33
2018-08-24T05:45:06.403Z,6.50
2018-08-24T05:47:33.738Z,6.77
2018-08-24T05:50:01.039Z,6.53
2018-08-24T05:52:28.297Z,6.73
2018-08-24T05:54:55.611Z,5.93
2018-08-24T05:57:22.879Z,6.93
2018-08-24T05:59:50.234Z,6.40
2018-08-24T06:02:17.543Z,5.43
2018-08-24T06:04:44.798Z,5.87
2018-08-24T06:07:11.999Z,6.00
2018-08-24T06:09:39.242Z,5.90
2018-08-24T06:12:06.816Z,5.23
2018-08-24T06:14:34.054Z,5.20
2018-08-24T06:17:06.973Z,5.10
2018-08-24T06:19:34.242Z,5.43
2018-08-24T06:22:01.496Z,5.10
2018-08-24T06:24:28.780Z,4.90
2018-08-24T06:26:56.041Z,4.90
2018-08-24T06:29:23.457Z,5.30
2018-08-24T06:31:50.835Z,4.27
2018-08-24T06:34:18.111Z,4.43
2018-08-24T06:36:45.532Z,4.80
2018-08-24T06:39:13.581Z,5.03
2018-08-24T06:41:41.234Z,4.30
2018-08-24T06:44:08.507Z,4.73
2018-08-24T06:46:35.761Z,4.90
2018-08-24T06:49:03.159Z,4.30
2018-08-24T06:51:30.494Z,4.90
2018-08-24T06:53:57.815Z,5.23
2018-08-24T06:56:25.083Z,4.13
2018-08-24T06:58:52.312Z,4.70
2018-08-24T07:01:19.605Z,4.03
2018-08-24T07:03:46.870Z,4.97
2018-08-24T07:06:14.126Z,5.10
2018-08-24T07:08:41.441Z,4.40
2018-08-24T07:11:08.707Z,5.00
2018-08-24T07:13:36.068Z,4.37
2018-08-24T07:16:03.436Z,4.13
2018-08-24T07:18:35.211Z,5.00
2018-08-24T07:21:02.579Z,4.10
2018-08-24T07:23:29.875Z,4.40
2018-08-24T07:25:57.170Z,3.60
2018-08-24T07:28:24.399Z,3.87
2018-08-24T07:30:51.718Z,3.93
2018-08-24T07:33:18.974Z,7.27
2018-08-24T07:35:49.514Z,4.63
2018-08-24T07:38:17.001Z,3.77
2018-08-24T07:40:44.289Z,3.00
2018-08-24T07:43:11.622Z,3.57
2018-08-24T07:45:38.838Z,3.97
2018-08-24T07:48:06.115Z,3.23
2018-08-24T07:50:33.345Z,3.50
2018-08-24T07:53:00.637Z,4.30
2018-08-24T07:55:27.903Z,3.50
2018-08-24T07:57:55.214Z,4.10
2018-08-24T08:00:22.512Z,3.57
2018-08-24T08:02:49.739Z,4.10
2018-08-24T08:05:17.080Z,3.20
2018-08-24T08:07:44.438Z,3.13
2018-08-24T08:10:11.724Z,3.70
2018-08-24T08:12:39.139Z,2.70
2018-08-24T08:15:08.433Z,3.13
2018-08-24T08:17:37.676Z,3.30
2018-08-24T08:20:05.270Z,2.37
2018-08-24T08:22:32.643Z,2.80
2018-08-24T08:24:59.912Z,2.60
2018-08-24T08:27:27.201Z,2.47
2018-08-24T08:30:02.399Z,2.70
2018-08-24T08:32:30.243Z,2.50
2018-08-24T08:34:57.480Z,2.43
2018-08-24T08:37:24.779Z,2.70
2018-08-24T08:39:52.626Z,3.00
2018-08-24T08:42:20.309Z,2.70
2018-08-24T08:44:47.664Z,1.93
2018-08-24T08:47:15.150Z,3.10
2018-08-24T08:49:42.411Z,2.40
2018-08-24T08:52:10.348Z,2.27
2018-08-24T08:54:37.599Z,2.80
2018-08-24T08:57:04.826Z,2.33
2018-08-24T08:59:32.105Z,2.10
2018-08-24T09:01:59.378Z,2.57
2018-08-24T09:04:26.746Z,2.27
2018-08-24T09:06:54.022Z,2.37
2018-08-24T09:09:22.076Z,2.57
2018-08-24T09:11:49.470Z,1.80
2018-08-24T09:14:17.675Z,2.50
2018-08-24T09:16:45.037Z,2.70
2018-08-24T09:19:18.731Z,2.60
2018-08-24T09:21:51.515Z,2.53
2018-08-24T09:24:24.406Z,3.23
2018-08-24T09:26:57.360Z,2.40
2018-08-24T09:29:28.334Z,3.20
2018-08-24T09:31:56.761Z,3.30
2018-08-24T09:34:24.066Z,2.17
2018-08-24T09:36:51.306Z,2.30
2018-08-24T09:39:24.081Z,2.47
2018-08-24T09:41:51.382Z,3.17
2018-08-24T09:44:18.652Z,2.60
2018-08-24T09:46:51.601Z,2.60
2018-08-24T09:49:24.398Z,3.20
2018-08-24T09:51:51.729Z,3.23
2018-08-24T09:54:19.026Z,2.90
2018-08-24T09:56:46.301Z,2.63
2018-08-24T09:59:13.592Z,2.70
2018-08-24T10:01:46.530Z,3.17
2018-08-24T10:04:19.867Z,3.03
2018-08-24T10:06:52.904Z,3.30
2018-08-24T10:09:20.205Z,3.33
2018-08-24T10:11:47.660Z,3.50
2018-08-24T10:14:14.971Z,2.30
2018-08-24T10:16:42.254Z,3.17
2018-08-24T10:19:14.440Z,2.20
2018-08-24T10:21:41.718Z,3.00
2018-08-24T10:24:09.279Z,2.03
2018-08-24T10:26:36.606Z,2.07
2018-08-24T10:29:04.274Z,3.50
2018-08-24T10:31:31.563Z,3.70
2018-08-24T10:33:59.064Z,3.90
2018-08-24T10:36:26.513Z,4.33
2018-08-24T10:38:53.785Z,4.30
2018-08-24T10:41:21.051Z,5.30
2018-08-24T10:43:48.390Z,5.10
2018-08-24T10:46:15.738Z,6.90
2018-08-24T10:48:43.683Z,6.50
2018-08-24T10:51:10.994Z,7.07
2018-08-24T10:53:38.290Z,8.00
2018-08-24T10:56:05.840Z,8.50
2018-08-24T10:58:33.132Z,8.90
2018-08-24T11:01:00.453Z,9.50
2018-08-24T11:03:27.724Z,17.50
2018-08-24T11:05:55.998Z,14.70
2018-08-24T11:08:23.301Z,9.83
2018-08-24T11:10:50.627Z,8.00
2018-08-24T11:13:17.862Z,7.37
2018-08-24T11:15:47.986Z,10.10
2018-08-24T11:18:15.305Z,8.00
2018-08-24T11:20:42.548Z,8.63
2018-08-24T11:23:09.941Z,8.57
2018-08-24T11:25:37.355Z,8.27
2018-08-24T11:28:04.643Z,7.30
2018-08-24T11:30:31.923Z,7.80
2018-08-24T11:32:59.163Z,4.90
2018-08-24T11:35:26.534Z,5.30
2018-08-24T11:37:55.083Z,5.70
2018-08-24T11:40:22.513Z,6.00
2018-08-24T11:42:49.756Z,6.87
2018-08-24T11:45:17.114Z,7.20
2018-08-24T11:47:44.518Z,7.20
2018-08-24T11:50:11.839Z,7.00
2018-08-24T11:52:39.156Z,6.37
2018-08-24T11:55:06.470Z,7.83
2018-08-24T11:57:33.748Z,7.00
2018-08-24T12:00:01.122Z,7.20
2018-08-24T12:02:28.434Z,6.33
2018-08-24T12:04:55.706Z,6.87
2018-08-24T12:07:22.975Z,6.07
2018-08-24T12:09:50.280Z,7.23
2018-08-24T12:12:17.646Z,6.10
2018-08-24T12:14:44.900Z,6.47
2018-08-24T12:17:16.732Z,7.17
2018-08-24T12:19:44.069Z,5.97
2018-08-24T12:22:11.377Z,5.40
2018-08-24T12:24:38.591Z,6.03
2018-08-24T12:27:05.904Z,6.63
2018-08-24T12:29:33.223Z,5.53
2018-08-24T12:32:00.574Z,6.00
2018-08-24T12:34:27.872Z,5.77
2018-08-24T12:36:55.114Z,5.97
2018-08-24T12:39:22.421Z,7.20
2018-08-24T12:41:49.752Z,5.60
2018-08-24T12:44:17.132Z,6.50
2018-08-24T12:46:44.391Z,6.50
2018-08-24T12:49:11.788Z,5.93
2018-08-24T12:51:39.071Z,6.73
2018-08-24T12:54:06.886Z,7.97
2018-08-24T12:56:34.209Z,7.53
2018-08-24T12:59:01.485Z,8.60
2018-08-24T13:01:28.776Z,7.67
2018-08-24T13:03:56.009Z,8.57
2018-08-24T13:06:23.275Z,7.90
2018-08-24T13:08:50.524Z,7.63
2018-08-24T13:11:17.801Z,7.30
2018-08-24T13:13:45.106Z,8.80
2018-08-24T13:16:12.327Z,8.63
2018-08-24T13:18:39.647Z,8.60
2018-08-24T13:21:06.986Z,7.30
2018-08-24T13:23:34.659Z,8.07
2018-08-24T13:26:01.943Z,7.50
2018-08-24T13:28:29.246Z,7.13
2018-08-24T13:30:56.494Z,7.97
2018-08-24T13:33:23.813Z,6.87
2018-08-24T13:35:51.127Z,7.67
2018-08-24T13:38:18.377Z,7.40
2018-08-24T13:40:45.690Z,11.37
2018-08-24T13:43:13.068Z,7.53
2018-08-24T13:45:40.352Z,7.70
2018-08-24T13:48:07.675Z,7.50
2018-08-24T13:50:34.991Z,6.73
2018-08-24T13:53:02.347Z,7.00
2018-08-24T13:55:29.738Z,7.70
2018-08-24T13:57:57.544Z,8.20
2018-08-24T14:00:25.664Z,8.00
2018-08-24T14:02:52.958Z,7.20
2018-08-24T14:05:20.322Z,7.37
2018-08-24T14:07:47.539Z,8.20
2018-08-24T14:10:14.787Z,6.57
2018-08-24T14:12:42.054Z,7.53
2018-08-24T14:15:09.330Z,7.00
2018-08-24T14:17:36.683Z,7.47
2018-08-24T14:20:03.993Z,7.87
2018-08-24T14:22:31.313Z,7.13
2018-08-24T14:24:58.542Z,7.30
2018-08-24T14:27:25.793Z,7.10
2018-08-24T14:29:53.047Z,7.30
2018-08-24T14:32:20.374Z,7.13
2018-08-24T14:34:47.621Z,6.40
2018-08-24T14:37:14.907Z,8.23
2018-08-24T14:39:42.175Z,7.80
2018-08-24T14:42:09.456Z,8.13
2018-08-24T14:44:36.823Z,6.57
2018-08-24T14:47:05.357Z,7.53
2018-08-24T14:49:32.754Z,6.53
2018-08-24T14:52:00.102Z,7.40
2018-08-24T14:54:27.389Z,7.57
2018-08-24T14:56:54.695Z,7.43
2018-08-24T14:59:21.996Z,7.03
2018-08-24T15:01:49.308Z,6.43
2018-08-24T15:04:16.593Z,7.83
2018-08-24T15:06:43.862Z,7.30
2018-08-24T15:09:11.577Z,6.60
2018-08-24T15:11:39.060Z,6.57
2018-08-24T15:14:06.777Z,6.00
2018-08-24T15:16:34.093Z,6.03
2018-08-24T15:19:01.639Z,6.43
2018-08-24T15:21:28.949Z,5.83
2018-08-24T15:23:56.437Z,5.80
2018-08-24T15:26:23.729Z,6.20
2018-08-24T15:28:50.995Z,5.80
2018-08-24T15:31:18.275Z,6.40
2018-08-24T15:33:46.045Z,5.70
2018-08-24T15:36:13.265Z,6.00
2018-08-24T15:38:40.579Z,6.00
2018-08-24T15:41:07.859Z,7.03
2018-08-24T15:43:35.178Z,5.70
2018-08-24T15:46:02.547Z,5.17
2018-08-24T15:48:29.936Z,5.43
2018-08-24T15:50:57.387Z,5.30
2018-08-24T15:53:24.678Z,6.10
2018-08-24T15:55:52.005Z,6.27
2018-08-24T15:58:19.260Z,5.97
2018-08-24T16:00:46.513Z,5.77
2018-08-24T16:03:13.802Z,5.87
2018-08-24T16:05:41.771Z,4.70
2018-08-24T16:08:09.180Z,5.27
2018-08-24T16:10:36.508Z,6.40
2018-08-24T16:13:03.903Z,6.30
2018-08-24T16:15:31.159Z,5.37
2018-08-24T16:18:04.045Z,5.67
2018-08-24T16:20:31.716Z,5.97
2018-08-24T16:22:58.925Z,6.00
2018-08-24T16:25:26.276Z,6.20
2018-08-24T16:27:53.519Z,5.43
2018-08-24T16:30:20.870Z,5.77
2018-08-24T16:32:48.280Z,5.63
2018-08-24T16:35:15.841Z,5.67
2018-08-24T16:37:43.132Z,11.47
2018-08-24T16:40:11.454Z,6.30
2018-08-24T16:42:38.686Z,6.20
2018-08-24T16:45:05.974Z,5.77
2018-08-24T16:47:33.222Z,6.00
2018-08-24T16:50:00.505Z,5.63
2018-08-24T16:52:27.844Z,5.60
2018-08-24T16:54:55.041Z,5.83
2018-08-24T16:57:22.277Z,5.00
2018-08-24T16:59:52.962Z,6.87
2018-08-24T17:02:20.276Z,5.30
2018-08-24T17:04:47.576Z,4.80
2018-08-24T17:07:14.937Z,5.70
2018-08-24T17:09:42.260Z,5.80
2018-08-24T17:12:09.586Z,6.20
2018-08-24T17:14:36.853Z,6.03
2018-08-24T17:17:04.392Z,5.70
2018-08-24T17:19:32.309Z,5.13
2018-08-24T17:21:59.573Z,5.87
2018-08-24T17:24:26.855Z,6.90
2018-08-24T17:26:54.152Z,7.90
2018-08-24T17:29:21.494Z,6.57
2018-08-24T17:31:48.832Z,6.23
2018-08-24T17:34:16.215Z,5.60
2018-08-24T17:36:43.495Z,5.43
2018-08-24T17:39:11.803Z,5.33
2018-08-24T17:41:39.209Z,6.27
2018-08-24T17:44:06.520Z,6.40
2018-08-24T17:46:33.794Z,5.70
2018-08-24T17:49:01.292Z,7.10
2018-08-24T17:51:28.568Z,5.90
2018-08-24T17:53:55.799Z,6.73
2018-08-24T17:56:23.027Z,5.67
2018-08-24T17:58:50.280Z,6.10
2018-08-24T18:01:17.571Z,6.03
2018-08-24T18:03:44.819Z,5.70
2018-08-24T18:06:12.462Z,6.57
2018-08-24T18:08:39.771Z,5.93
2018-08-24T18:11:07.156Z,6.50
2018-08-24T18:13:34.389Z,6.00
2018-08-24T18:16:01.618Z,7.50
2018-08-24T18:18:28.890Z,5.87
2018-08-24T18:20:56.164Z,6.03
2018-08-24T18:23:23.349Z,6.23
2018-08-24T18:25:50.536Z,7.23
2018-08-24T18:28:17.796Z,6.20
2018-08-24T18:30:45.211Z,5.87
2018-08-24T18:33:12.491Z,6.07
2018-08-24T18:35:39.829Z,6.10
2018-08-24T18:38:07.071Z,6.67
2018-08-24T18:40:34.307Z,6.63
2018-08-24T18:43:01.634Z,6.27
2018-08-24T18:45:28.918Z,5.50
2018-08-24T18:47:56.311Z,6.10
2018-08-24T18:50:23.694Z,6.60
2018-08-24T18:52:50.994Z,5.63
2018-08-24T18:55:18.206Z,5.93
2018-08-24T18:57:45.527Z,6.20
2018-08-24T19:00:12.764Z,5.97
2018-08-24T19:02:40.134Z,5.83
2018-08-24T19:05:07.482Z,5.93
2018-08-24T19:07:34.744Z,5.77
2018-08-24T19:10:02.215Z,5.10
2018-08-24T19:12:29.846Z,6.90
2018-08-24T19:14:57.788Z,6.67
2018-08-24T19:17:30.623Z,5.60
2018-08-24T19:20:03.537Z,6.10
2018-08-24T19:22:30.808Z,5.83
2018-08-24T19:24:58.127Z,5.80
2018-08-24T19:27:31.050Z,6.70
2018-08-24T19:30:03.844Z,6.60
2018-08-24T19:32:31.168Z,7.77
2018-08-24T19:34:58.460Z,7.30
2018-08-24T19:37:25.838Z,6.40
2018-08-24T19:39:58.716Z,6.27
2018-08-24T19:42:26.357Z,5.97
2018-08-24T19:44:54.247Z,6.53
2018-08-24T19:49:32.039Z,7.17
2018-08-24T19:51:59.387Z,5.13
2018-08-24T19:54:26.691Z,6.23
2018-08-24T19:56:53.969Z,7.17
2018-08-24T19:59:21.276Z,6.77
2018-08-24T20:01:48.533Z,6.87
2018-08-24T20:04:15.754Z,6.03
2018-08-24T20:06:48.592Z,5.93
2018-08-24T20:09:21.477Z,6.43
2018-08-24T20:11:50.068Z,5.53
2018-08-24T20:14:22.952Z,6.40
2018-08-24T20:16:55.919Z,6.23
2018-08-24T20:19:23.253Z,6.83
2018-08-24T20:21:50.586Z,6.03
2018-08-24T20:24:18.044Z,6.00
2018-08-24T20:26:45.432Z,6.07
2018-08-24T20:29:12.685Z,5.87
2018-08-24T20:31:39.963Z,6.43
2018-08-24T20:34:07.290Z,6.87
2018-08-24T20:36:34.520Z,5.33
2018-08-24T20:39:01.901Z,5.30
2018-08-24T20:41:29.213Z,9.10
2018-08-24T20:43:56.525Z,10.27
2018-08-24T20:46:23.784Z,5.83
2018-08-24T20:48:51.101Z,6.87
2018-08-24T20:51:18.388Z,6.60
2018-08-24T20:53:45.640Z,5.00
2018-08-24T20:56:13.014Z,6.27
2018-08-24T20:58:40.308Z,6.33
2018-08-24T21:01:07.642Z,6.00
2018-08-24T21:03:35.021Z,5.80
2018-08-24T21:06:04.035Z,6.53
2018-08-24T21:08:31.328Z,6.77
2018-08-24T21:10:58.558Z,5.53
2018-08-24T21:13:25.739Z,5.53
2018-08-24T21:15:53.024Z,5.93
2018-08-24T21:18:20.422Z,4.80
2018-08-24T21:20:47.780Z,5.90
2018-08-24T21:23:15.299Z,5.83
2018-08-24T21:25:42.633Z,5.83
2018-08-24T21:28:09.855Z,5.33
2018-08-24T21:30:37.127Z,6.43
2018-08-24T21:33:04.502Z,6.30
2018-08-24T21:35:31.694Z,5.10
2018-08-24T21:37:58.953Z,5.10
2018-08-24T21:40:26.257Z,6.57
2018-08-24T21:42:53.582Z,5.03
2018-08-24T21:45:20.912Z,6.40
2018-08-24T21:47:48.212Z,6.20
2018-08-24T21:50:15.532Z,5.90
2018-08-24T21:52:42.852Z,5.10
2018-08-24T21:55:10.206Z,4.70
2018-08-24T21:57:37.522Z,4.90
2018-08-24T22:00:09.017Z,4.80
2018-08-24T22:02:36.289Z,4.73
2018-08-24T22:05:03.588Z,4.30
2018-08-24T22:07:30.859Z,3.93
2018-08-24T22:09:58.106Z,3.80
2018-08-24T22:12:25.417Z,3.47
2018-08-24T22:14:52.726Z,4.37
2018-08-24T22:17:20.015Z,3.63
2018-08-24T22:19:47.314Z,4.00
2018-08-24T22:22:14.611Z,4.03
2018-08-24T22:24:41.872Z,3.80
2018-08-24T22:27:09.071Z,3.50
2018-08-24T22:29:36.417Z,3.67
2018-08-24T22:32:03.730Z,3.87
2018-08-24T22:34:31.021Z,3.40
2018-08-24T22:36:58.232Z,2.67
2018-08-24T22:39:25.539Z,3.67
2018-08-24T22:41:52.839Z,2.77
2018-08-24T22:44:20.108Z,3.17
2018-08-24T22:46:47.307Z,3.40
2018-08-24T22:49:14.625Z,3.70
2018-08-24T22:51:41.928Z,3.30
2018-08-24T22:54:09.195Z,2.77
2018-08-24T22:56:36.614Z,3.37
2018-08-24T22:59:04.318Z,2.70
2018-08-24T23:01:31.612Z,2.77
2018-08-24T23:03:58.937Z,3.10
2018-08-24T23:06:26.177Z,3.90
2018-08-24T23:08:53.404Z,3.77
2018-08-24T23:11:20.717Z,2.93
2018-08-24T23:13:47.983Z,2.97
2018-08-24T23:16:15.317Z,3.50
2018-08-24T23:18:42.567Z,3.87
2018-08-24T23:21:09.820Z,3.80
2018-08-24T23:23:37.143Z,3.60
2018-08-24T23:26:04.500Z,3.30
2018-08-24T23:28:31.748Z,3.03
2018-08-24T23:30:59.093Z,3.40
2018-08-24T23:33:26.404Z,4.30
2018-08-24T23:35:53.740Z,3.30
2018-08-24T23:38:21.006Z,3.20
2018-08-24T23:40:48.229Z,3.80
2018-08-24T23:43:15.497Z,3.27
2018-08-24T23:45:42.882Z,3.50
2018-08-24T23:48:10.132Z,3.17
2018-08-24T23:50:37.380Z,2.73
2018-08-24T23:53:04.607Z,3.67
2018-08-24T23:55:31.984Z,3.40
2018-08-24T23:57:59.236Z,3.30
